sensor_id;sensor_type;location;lat;lon;timestamp;pressure;altitude;pressure_sealevel;temperature;humidity
68873;BME280;55907;50.806;12.882;2023-05-09T00:01:05;979.3;;;9.9;52.8
68873;BME280;55907;50.806;12.882;2023-05-09T00:04:05;979.2;;;9.9;53.0
68873;BME280;55907;50.806;12.882;2023-05-09T00:07:07;979.1;;;9.9;52.9
68873;BME280;55907;50.806;12.882;2023-05-09T00:10:09;979.1;;;9.9;53.0
68873;BME280;55907;50.806;12.882;2023-05-09T00:13:10;979.2;;;9.8;53.2
68873;BME280;55907;50.806;12.882;2023-05-09T00:16:11;979.2;;;9.8;53.6
68873;BME280;55907;50.806;12.882;2023-05-09T00:19:13;979.2;;;9.8;52.9
68873;BME280;55907;50.806;12.882;2023-05-09T00:22:14;979.1;;;9.9;52.8
68873;BME280;55907;50.806;12.882;2023-05-09T00:25:16;979.2;;;9.8;53.1
68873;BME280;55907;50.806;12.882;2023-05-09T00:28:17;979.1;;;9.9;52.6
68873;BME280;55907;50.806;12.882;2023-05-09T00:31:19;979.1;;;9.9;52.5
68873;BME280;55907;50.806;12.882;2023-05-09T00:34:21;979.0;;;9.8;52.8
68873;BME280;55907;50.806;12.882;2023-05-09T00:37:22;979.1;;;9.8;52.9
68873;BME280;55907;50.806;12.882;2023-05-09T00:40:24;979.0;;;9.8;52.9
68873;BME280;55907;50.806;12.882;2023-05-09T00:43:25;978.9;;;9.7;53.0
68873;BME280;55907;50.806;12.882;2023-05-09T00:46:27;979.0;;;9.7;53.0
68873;BME280;55907;50.806;12.882;2023-05-09T00:49:28;978.9;;;9.6;53.1
68873;BME280;55907;50.806;12.882;2023-05-09T00:52:32;978.9;;;9.6;53.3
68873;BME280;55907;50.806;12.882;2023-05-09T00:55:32;978.9;;;9.6;53.4
68873;BME280;55907;50.806;12.882;2023-05-09T00:58:33;978.8;;;9.5;53.4
68873;BME280;55907;50.806;12.882;2023-05-09T01:01:34;978.8;;;9.5;53.5
68873;BME280;55907;50.806;12.882;2023-05-09T01:04:36;978.8;;;9.5;53.8
68873;BME280;55907;50.806;12.882;2023-05-09T01:07:42;978.7;;;9.5;53.4
68873;BME280;55907;50.806;12.882;2023-05-09T01:10:43;978.7;;;9.5;53.6
68873;BME280;55907;50.806;12.882;2023-05-09T01:13:48;978.6;;;9.3;53.9
68873;BME280;55907;50.806;12.882;2023-05-09T01:16:46;978.6;;;9.3;53.8
68873;BME280;55907;50.806;12.882;2023-05-09T01:19:51;978.6;;;9.3;54.0
68873;BME280;55907;50.806;12.882;2023-05-09T01:22:48;978.6;;;9.2;54.1
68873;BME280;55907;50.806;12.882;2023-05-09T01:25:52;978.6;;;9.3;54.1
68873;BME280;55907;50.806;12.882;2023-05-09T01:31:50;978.6;;;9.2;54.3
68873;BME280;55907;50.806;12.882;2023-05-09T01:34:54;978.6;;;9.2;54.2
68873;BME280;55907;50.806;12.882;2023-05-09T01:37:53;978.6;;;9.2;54.5
68873;BME280;55907;50.806;12.882;2023-05-09T01:40:55;978.5;;;9.1;54.5
68873;BME280;55907;50.806;12.882;2023-05-09T01:43:58;978.7;;;9.1;54.4
68873;BME280;55907;50.806;12.882;2023-05-09T01:46:57;978.6;;;9.0;54.7
68873;BME280;55907;50.806;12.882;2023-05-09T01:49:59;978.7;;;9.1;54.5
68873;BME280;55907;50.806;12.882;2023-05-09T01:53:01;978.7;;;9.1;55.1
68873;BME280;55907;50.806;12.882;2023-05-09T01:56:03;978.6;;;9.0;54.9
68873;BME280;55907;50.806;12.882;2023-05-09T01:59:04;978.6;;;9.0;54.9
68873;BME280;55907;50.806;12.882;2023-05-09T02:02:05;978.6;;;9.0;55.0
68873;BME280;55907;50.806;12.882;2023-05-09T02:05:07;978.6;;;9.0;54.7
68873;BME280;55907;50.806;12.882;2023-05-09T02:08:08;978.6;;;9.0;55.2
68873;BME280;55907;50.806;12.882;2023-05-09T02:11:09;978.6;;;9.0;55.0
68873;BME280;55907;50.806;12.882;2023-05-09T02:14:11;978.6;;;8.9;55.0
68873;BME280;55907;50.806;12.882;2023-05-09T02:17:12;978.5;;;9.0;54.8
68873;BME280;55907;50.806;12.882;2023-05-09T02:20:14;978.5;;;8.9;55.0
68873;BME280;55907;50.806;12.882;2023-05-09T02:23:15;978.4;;;8.9;55.2
68873;BME280;55907;50.806;12.882;2023-05-09T02:26:17;978.4;;;8.9;55.1
68873;BME280;55907;50.806;12.882;2023-05-09T02:32:22;978.4;;;8.9;55.1
68873;BME280;55907;50.806;12.882;2023-05-09T02:35:23;978.4;;;8.9;54.9
68873;BME280;55907;50.806;12.882;2023-05-09T02:38:23;978.4;;;8.8;55.2
68873;BME280;55907;50.806;12.882;2023-05-09T02:41:25;978.4;;;8.8;55.2
68873;BME280;55907;50.806;12.882;2023-05-09T02:44:26;978.3;;;8.7;55.4
68873;BME280;55907;50.806;12.882;2023-05-09T02:47:27;978.3;;;8.7;55.4
68873;BME280;55907;50.806;12.882;2023-05-09T02:50:29;978.4;;;8.6;55.7
68873;BME280;55907;50.806;12.882;2023-05-09T02:53:30;978.3;;;8.7;55.4
68873;BME280;55907;50.806;12.882;2023-05-09T02:56:32;978.2;;;8.6;55.6
68873;BME280;55907;50.806;12.882;2023-05-09T02:59:33;978.3;;;8.6;55.4
68873;BME280;55907;50.806;12.882;2023-05-09T03:02:35;978.2;;;8.6;55.4
68873;BME280;55907;50.806;12.882;2023-05-09T03:05:37;978.2;;;8.5;55.6
68873;BME280;55907;50.806;12.882;2023-05-09T03:08:38;978.2;;;8.6;55.6
68873;BME280;55907;50.806;12.882;2023-05-09T03:11:40;978.2;;;8.6;55.5
68873;BME280;55907;50.806;12.882;2023-05-09T03:14:41;978.2;;;8.6;55.5
68873;BME280;55907;50.806;12.882;2023-05-09T03:17:43;978.1;;;8.5;55.4
68873;BME280;55907;50.806;12.882;2023-05-09T03:20:44;978.1;;;8.5;55.3
68873;BME280;55907;50.806;12.882;2023-05-09T03:23:46;978.0;;;8.5;55.3
68873;BME280;55907;50.806;12.882;2023-05-09T03:26:47;978.1;;;8.5;55.4
68873;BME280;55907;50.806;12.882;2023-05-09T03:29:49;978.1;;;8.5;55.3
68873;BME280;55907;50.806;12.882;2023-05-09T03:32:50;978.1;;;8.4;55.1
68873;BME280;55907;50.806;12.882;2023-05-09T03:38:53;978.1;;;8.4;55.3
68873;BME280;55907;50.806;12.882;2023-05-09T03:41:55;978.1;;;8.4;55.0
68873;BME280;55907;50.806;12.882;2023-05-09T03:44:56;978.1;;;8.4;55.1
68873;BME280;55907;50.806;12.882;2023-05-09T03:47:58;978.1;;;8.4;55.2
68873;BME280;55907;50.806;12.882;2023-05-09T03:50:59;978.0;;;8.5;55.1
68873;BME280;55907;50.806;12.882;2023-05-09T03:54:01;978.0;;;8.4;54.7
68873;BME280;55907;50.806;12.882;2023-05-09T03:57:02;978.0;;;8.5;54.7
68873;BME280;55907;50.806;12.882;2023-05-09T04:00:05;978.0;;;8.5;54.6
68873;BME280;55907;50.806;12.882;2023-05-09T04:03:05;978.0;;;8.5;54.6
68873;BME280;55907;50.806;12.882;2023-05-09T04:06:07;977.9;;;8.5;54.7
68873;BME280;55907;50.806;12.882;2023-05-09T04:09:08;977.9;;;8.5;55.2
68873;BME280;55907;50.806;12.882;2023-05-09T04:12:10;978.0;;;8.6;54.6
68873;BME280;55907;50.806;12.882;2023-05-09T04:15:12;978.0;;;8.7;54.0
68873;BME280;55907;50.806;12.882;2023-05-09T04:18:13;978.0;;;8.7;54.1
68873;BME280;55907;50.806;12.882;2023-05-09T04:21:15;978.0;;;8.6;54.0
68873;BME280;55907;50.806;12.882;2023-05-09T04:24:16;978.0;;;8.7;54.0
68873;BME280;55907;50.806;12.882;2023-05-09T04:27:18;978.0;;;8.7;53.7
68873;BME280;55907;50.806;12.882;2023-05-09T04:30:19;978.0;;;8.7;53.8
68873;BME280;55907;50.806;12.882;2023-05-09T04:33:21;977.9;;;8.8;53.3
68873;BME280;55907;50.806;12.882;2023-05-09T04:36:22;977.9;;;8.9;53.2
68873;BME280;55907;50.806;12.882;2023-05-09T04:39:24;977.9;;;8.9;53.2
68873;BME280;55907;50.806;12.882;2023-05-09T04:42:25;977.9;;;9.1;52.4
68873;BME280;55907;50.806;12.882;2023-05-09T04:45:27;977.9;;;9.4;52.1
68873;BME280;55907;50.806;12.882;2023-05-09T04:48:28;977.9;;;10.3;50.4
68873;BME280;55907;50.806;12.882;2023-05-09T04:51:30;977.9;;;11.4;47.2
68873;BME280;55907;50.806;12.882;2023-05-09T04:54:31;977.8;;;12.6;44.6
68873;BME280;55907;50.806;12.882;2023-05-09T04:57:33;977.9;;;13.8;42.7
68873;BME280;55907;50.806;12.882;2023-05-09T05:00:34;977.8;;;14.8;40.4
68873;BME280;55907;50.806;12.882;2023-05-09T05:03:36;977.8;;;14.9;38.8
68873;BME280;55907;50.806;12.882;2023-05-09T05:06:37;977.7;;;14.9;38.5
68873;BME280;55907;50.806;12.882;2023-05-09T05:09:39;977.8;;;14.7;38.1
68873;BME280;55907;50.806;12.882;2023-05-09T05:12:40;977.8;;;14.9;38.4
68873;BME280;55907;50.806;12.882;2023-05-09T05:15:42;977.8;;;15.1;37.3
68873;BME280;55907;50.806;12.882;2023-05-09T05:18:43;977.7;;;15.6;36.0
68873;BME280;55907;50.806;12.882;2023-05-09T05:21:44;977.8;;;15.7;35.4
68873;BME280;55907;50.806;12.882;2023-05-09T05:24:46;977.8;;;16.0;35.3
68873;BME280;55907;50.806;12.882;2023-05-09T05:27:47;977.7;;;16.0;35.6
68873;BME280;55907;50.806;12.882;2023-05-09T05:30:49;977.7;;;16.0;35.4
68873;BME280;55907;50.806;12.882;2023-05-09T05:33:50;977.7;;;15.8;34.9
68873;BME280;55907;50.806;12.882;2023-05-09T05:36:52;977.7;;;15.9;35.1
68873;BME280;55907;50.806;12.882;2023-05-09T05:39:53;977.7;;;15.9;34.8
68873;BME280;55907;50.806;12.882;2023-05-09T05:42:55;977.7;;;15.8;34.9
68873;BME280;55907;50.806;12.882;2023-05-09T05:45:56;977.7;;;15.8;35.7
68873;BME280;55907;50.806;12.882;2023-05-09T05:48:58;977.6;;;15.5;35.5
68873;BME280;55907;50.806;12.882;2023-05-09T05:51:59;977.6;;;15.8;35.7
68873;BME280;55907;50.806;12.882;2023-05-09T05:55:00;977.6;;;15.8;36.4
68873;BME280;55907;50.806;12.882;2023-05-09T05:58:02;977.5;;;15.6;36.2
68873;BME280;55907;50.806;12.882;2023-05-09T06:04:05;977.5;;;15.8;36.1
68873;BME280;55907;50.806;12.882;2023-05-09T06:07:06;977.5;;;16.3;35.2
68873;BME280;55907;50.806;12.882;2023-05-09T06:10:09;977.4;;;16.7;34.2
68873;BME280;55907;50.806;12.882;2023-05-09T06:13:09;977.3;;;16.5;34.3
68873;BME280;55907;50.806;12.882;2023-05-09T06:16:11;977.3;;;16.4;35.2
68873;BME280;55907;50.806;12.882;2023-05-09T06:19:12;977.3;;;15.8;35.9
68873;BME280;55907;50.806;12.882;2023-05-09T06:22:14;977.3;;;15.3;36.8
68873;BME280;55907;50.806;12.882;2023-05-09T06:25:15;977.3;;;15.1;37.0
68873;BME280;55907;50.806;12.882;2023-05-09T06:28:17;977.2;;;15.1;37.3
68873;BME280;55907;50.806;12.882;2023-05-09T06:31:18;977.2;;;15.3;37.8
68873;BME280;55907;50.806;12.882;2023-05-09T06:34:19;977.1;;;15.7;37.2
68873;BME280;55907;50.806;12.882;2023-05-09T06:37:21;977.2;;;16.1;36.4
68873;BME280;55907;50.806;12.882;2023-05-09T06:40:22;977.1;;;16.3;36.2
68873;BME280;55907;50.806;12.882;2023-05-09T06:43:24;977.1;;;16.2;36.3
68873;BME280;55907;50.806;12.882;2023-05-09T06:46:25;977.0;;;16.3;36.0
68873;BME280;55907;50.806;12.882;2023-05-09T06:49:27;977.1;;;16.2;36.0
68873;BME280;55907;50.806;12.882;2023-05-09T06:52:28;977.0;;;16.3;36.7
68873;BME280;55907;50.806;12.882;2023-05-09T06:55:30;977.0;;;16.1;35.6
68873;BME280;55907;50.806;12.882;2023-05-09T06:58:31;976.9;;;16.4;35.9
68873;BME280;55907;50.806;12.882;2023-05-09T07:01:33;976.9;;;16.9;35.3
68873;BME280;55907;50.806;12.882;2023-05-09T07:04:34;976.9;;;17.4;34.1
68873;BME280;55907;50.806;12.882;2023-05-09T07:07:35;976.8;;;17.8;33.8
68873;BME280;55907;50.806;12.882;2023-05-09T07:10:37;976.8;;;17.9;33.2
68873;BME280;55907;50.806;12.882;2023-05-09T07:13:38;976.8;;;17.6;33.0
68873;BME280;55907;50.806;12.882;2023-05-09T07:16:40;976.8;;;17.6;32.9
68873;BME280;55907;50.806;12.882;2023-05-09T07:19:41;976.8;;;18.2;32.6
68873;BME280;55907;50.806;12.882;2023-05-09T07:22:43;976.6;;;18.6;31.6
68873;BME280;55907;50.806;12.882;2023-05-09T07:25:44;976.6;;;19.0;31.4
68873;BME280;55907;50.806;12.882;2023-05-09T07:28:46;976.5;;;19.4;30.8
68873;BME280;55907;50.806;12.882;2023-05-09T07:31:47;976.5;;;19.0;30.9
68873;BME280;55907;50.806;12.882;2023-05-09T07:34:48;976.5;;;19.0;30.6
68873;BME280;55907;50.806;12.882;2023-05-09T07:37:50;976.4;;;18.9;31.7
68873;BME280;55907;50.806;12.882;2023-05-09T07:40:51;976.4;;;19.0;31.3
68873;BME280;55907;50.806;12.882;2023-05-09T07:43:53;976.4;;;18.8;32.0
68873;BME280;55907;50.806;12.882;2023-05-09T07:46:54;976.4;;;19.0;31.0
68873;BME280;55907;50.806;12.882;2023-05-09T07:49:56;976.3;;;18.8;30.8
68873;BME280;55907;50.806;12.882;2023-05-09T07:52:57;976.3;;;18.7;31.4
68873;BME280;55907;50.806;12.882;2023-05-09T07:55:58;976.3;;;18.5;32.0
68873;BME280;55907;50.806;12.882;2023-05-09T07:59:00;976.3;;;18.4;32.2
68873;BME280;55907;50.806;12.882;2023-05-09T08:05:03;976.2;;;18.4;32.1
68873;BME280;55907;50.806;12.882;2023-05-09T08:08:04;976.1;;;18.4;33.0
68873;BME280;55907;50.806;12.882;2023-05-09T08:11:05;976.1;;;18.4;33.5
68873;BME280;55907;50.806;12.882;2023-05-09T08:14:07;976.0;;;18.3;32.8
68873;BME280;55907;50.806;12.882;2023-05-09T08:17:08;976.0;;;18.2;32.2
68873;BME280;55907;50.806;12.882;2023-05-09T08:20:11;976.1;;;18.4;33.1
68873;BME280;55907;50.806;12.882;2023-05-09T08:23:11;976.0;;;18.7;32.5
68873;BME280;55907;50.806;12.882;2023-05-09T08:26:13;976.0;;;19.0;31.9
68873;BME280;55907;50.806;12.882;2023-05-09T08:29:14;976.0;;;19.2;31.5
68873;BME280;55907;50.806;12.882;2023-05-09T08:32:15;975.9;;;19.5;31.2
68873;BME280;55907;50.806;12.882;2023-05-09T08:35:17;976.0;;;19.8;30.6
68873;BME280;55907;50.806;12.882;2023-05-09T08:38:19;975.9;;;20.5;29.8
68873;BME280;55907;50.806;12.882;2023-05-09T08:41:24;975.9;;;21.4;28.8
68873;BME280;55907;50.806;12.882;2023-05-09T08:44:21;975.9;;;22.4;27.3
68873;BME280;55907;50.806;12.882;2023-05-09T08:47:23;975.8;;;23.3;26.8
68873;BME280;55907;50.806;12.882;2023-05-09T08:50:24;975.8;;;23.9;25.9
68873;BME280;55907;50.806;12.882;2023-05-09T08:56:28;975.7;;;25.4;25.4
68873;BME280;55907;50.806;12.882;2023-05-09T08:59:28;975.8;;;26.0;23.1
68873;BME280;55907;50.806;12.882;2023-05-09T09:02:30;975.8;;;25.9;23.1
68873;BME280;55907;50.806;12.882;2023-05-09T09:05:31;975.8;;;26.2;22.7
68873;BME280;55907;50.806;12.882;2023-05-09T09:08:33;975.8;;;26.4;23.5
68873;BME280;55907;50.806;12.882;2023-05-09T09:11:35;975.8;;;26.5;22.7
68873;BME280;55907;50.806;12.882;2023-05-09T09:14:37;975.7;;;26.7;22.4
68873;BME280;55907;50.806;12.882;2023-05-09T09:17:39;975.7;;;26.4;21.6
68873;BME280;55907;50.806;12.882;2023-05-09T09:20:40;975.6;;;26.0;20.0
68873;BME280;55907;50.806;12.882;2023-05-09T09:23:41;975.7;;;25.2;20.8
68873;BME280;55907;50.806;12.882;2023-05-09T09:26:45;975.6;;;25.3;21.8
68873;BME280;55907;50.806;12.882;2023-05-09T09:29:42;975.7;;;25.2;19.5
68873;BME280;55907;50.806;12.882;2023-05-09T09:32:43;975.7;;;25.1;20.6
68873;BME280;55907;50.806;12.882;2023-05-09T09:35:46;975.6;;;25.0;21.4
68873;BME280;55907;50.806;12.882;2023-05-09T09:38:46;975.6;;;25.2;21.4
68873;BME280;55907;50.806;12.882;2023-05-09T09:41:47;975.6;;;24.9;20.8
68873;BME280;55907;50.806;12.882;2023-05-09T09:44:50;975.5;;;24.8;21.2
68873;BME280;55907;50.806;12.882;2023-05-09T09:47:50;975.5;;;24.3;21.1
68873;BME280;55907;50.806;12.882;2023-05-09T09:50:53;975.4;;;24.1;20.5
68873;BME280;55907;50.806;12.882;2023-05-09T09:53:53;975.3;;;24.1;20.8
68873;BME280;55907;50.806;12.882;2023-05-09T09:56:54;975.4;;;24.2;21.5
68873;BME280;55907;50.806;12.882;2023-05-09T09:59:57;975.4;;;23.9;21.0
68873;BME280;55907;50.806;12.882;2023-05-09T10:02:58;975.4;;;23.7;21.8
68873;BME280;55907;50.806;12.882;2023-05-09T10:06:00;975.4;;;23.8;22.8
68873;BME280;55907;50.806;12.882;2023-05-09T10:09:00;975.3;;;23.6;22.6
68873;BME280;55907;50.806;12.882;2023-05-09T10:12:02;975.3;;;23.3;21.6
68873;BME280;55907;50.806;12.882;2023-05-09T10:15:06;975.3;;;23.0;22.0
68873;BME280;55907;50.806;12.882;2023-05-09T10:18:04;975.3;;;22.7;23.4
68873;BME280;55907;50.806;12.882;2023-05-09T10:21:06;975.2;;;22.6;24.4
68873;BME280;55907;50.806;12.882;2023-05-09T10:24:07;975.1;;;22.6;23.7
68873;BME280;55907;50.806;12.882;2023-05-09T10:27:09;975.1;;;23.0;23.4
68873;BME280;55907;50.806;12.882;2023-05-09T10:30:14;975.0;;;22.9;22.9
68873;BME280;55907;50.806;12.882;2023-05-09T10:33:14;975.0;;;23.0;22.8
68873;BME280;55907;50.806;12.882;2023-05-09T10:36:14;975.0;;;22.6;21.6
68873;BME280;55907;50.806;12.882;2023-05-09T10:39:14;975.0;;;22.7;21.5
68873;BME280;55907;50.806;12.882;2023-05-09T10:42:15;974.9;;;22.4;22.6
68873;BME280;55907;50.806;12.882;2023-05-09T10:45:17;974.8;;;22.3;23.4
68873;BME280;55907;50.806;12.882;2023-05-09T10:48:18;974.7;;;22.2;23.3
68873;BME280;55907;50.806;12.882;2023-05-09T10:51:20;974.7;;;22.2;24.3
68873;BME280;55907;50.806;12.882;2023-05-09T10:54:26;974.7;;;21.9;24.7
68873;BME280;55907;50.806;12.882;2023-05-09T10:57:22;974.6;;;21.9;24.4
68873;BME280;55907;50.806;12.882;2023-05-09T11:00:23;974.6;;;22.2;24.9
68873;BME280;55907;50.806;12.882;2023-05-09T11:03:26;974.5;;;22.0;22.7
68873;BME280;55907;50.806;12.882;2023-05-09T11:06:40;974.5;;;21.8;20.8
68873;BME280;55907;50.806;12.882;2023-05-09T11:09:29;974.5;;;21.9;20.5
68873;BME280;55907;50.806;12.882;2023-05-09T11:12:29;974.4;;;21.9;20.7
68873;BME280;55907;50.806;12.882;2023-05-09T11:15:30;974.6;;;21.9;21.9
68873;BME280;55907;50.806;12.882;2023-05-09T11:18:32;974.4;;;21.6;20.7
68873;BME280;55907;50.806;12.882;2023-05-09T11:21:34;974.4;;;21.6;21.0
68873;BME280;55907;50.806;12.882;2023-05-09T11:24:36;974.3;;;21.6;21.6
68873;BME280;55907;50.806;12.882;2023-05-09T11:27:38;974.3;;;21.6;22.2
68873;BME280;55907;50.806;12.882;2023-05-09T11:30:39;974.2;;;21.8;22.5
68873;BME280;55907;50.806;12.882;2023-05-09T11:33:40;974.2;;;21.4;22.7
68873;BME280;55907;50.806;12.882;2023-05-09T11:36:41;974.3;;;21.4;20.5
68873;BME280;55907;50.806;12.882;2023-05-09T11:39:55;974.2;;;21.2;22.6
68873;BME280;55907;50.806;12.882;2023-05-09T11:42:45;974.3;;;21.0;22.0
68873;BME280;55907;50.806;12.882;2023-05-09T11:45:44;974.2;;;21.2;23.4
68873;BME280;55907;50.806;12.882;2023-05-09T11:48:47;974.1;;;21.4;22.6
68873;BME280;55907;50.806;12.882;2023-05-09T11:51:47;974.1;;;21.2;23.2
68873;BME280;55907;50.806;12.882;2023-05-09T11:54:48;974.0;;;21.2;23.1
68873;BME280;55907;50.806;12.882;2023-05-09T11:57:51;974.0;;;21.4;23.6
68873;BME280;55907;50.806;12.882;2023-05-09T12:00:51;974.0;;;21.6;22.8
68873;BME280;55907;50.806;12.882;2023-05-09T12:03:53;974.0;;;21.3;24.0
68873;BME280;55907;50.806;12.882;2023-05-09T12:06:56;974.0;;;21.1;24.1
68873;BME280;55907;50.806;12.882;2023-05-09T12:09:56;974.0;;;20.7;24.5
68873;BME280;55907;50.806;12.882;2023-05-09T12:12:57;973.9;;;20.8;23.6
68873;BME280;55907;50.806;12.882;2023-05-09T12:15:59;973.9;;;21.1;25.2
68873;BME280;55907;50.806;12.882;2023-05-09T12:19:00;973.7;;;21.1;24.2
68873;BME280;55907;50.806;12.882;2023-05-09T12:22:03;973.8;;;21.0;25.7
68873;BME280;55907;50.806;12.882;2023-05-09T12:25:05;973.8;;;20.6;25.7
68873;BME280;55907;50.806;12.882;2023-05-09T12:28:04;973.7;;;20.4;26.3
68873;BME280;55907;50.806;12.882;2023-05-09T12:31:05;973.7;;;20.6;26.6
68873;BME280;55907;50.806;12.882;2023-05-09T12:34:07;973.5;;;20.4;27.1
68873;BME280;55907;50.806;12.882;2023-05-09T12:37:13;973.4;;;20.9;26.9
68873;BME280;55907;50.806;12.882;2023-05-09T12:40:11;973.4;;;21.2;27.3
68873;BME280;55907;50.806;12.882;2023-05-09T12:43:11;973.4;;;21.1;27.0
68873;BME280;55907;50.806;12.882;2023-05-09T12:46:16;973.2;;;21.1;26.3
68873;BME280;55907;50.806;12.882;2023-05-09T12:49:18;973.2;;;21.1;27.2
68873;BME280;55907;50.806;12.882;2023-05-09T12:52:16;973.2;;;21.0;27.0
68873;BME280;55907;50.806;12.882;2023-05-09T12:55:17;973.2;;;20.9;27.9
68873;BME280;55907;50.806;12.882;2023-05-09T12:58:18;973.2;;;21.0;28.0
68873;BME280;55907;50.806;12.882;2023-05-09T13:01:22;973.2;;;21.0;26.6
68873;BME280;55907;50.806;12.882;2023-05-09T13:04:22;973.1;;;21.0;27.1
68873;BME280;55907;50.806;12.882;2023-05-09T13:07:22;973.1;;;20.7;26.4
68873;BME280;55907;50.806;12.882;2023-05-09T13:10:26;972.9;;;20.6;27.5
68873;BME280;55907;50.806;12.882;2023-05-09T13:13:27;972.9;;;20.5;27.0
68873;BME280;55907;50.806;12.882;2023-05-09T13:16:27;972.8;;;20.7;27.4
68873;BME280;55907;50.806;12.882;2023-05-09T13:19:28;973.0;;;20.9;26.9
68873;BME280;55907;50.806;12.882;2023-05-09T13:22:29;972.8;;;20.8;26.6
68873;BME280;55907;50.806;12.882;2023-05-09T13:28:32;972.8;;;20.5;26.6
68873;BME280;55907;50.806;12.882;2023-05-09T13:31:34;972.9;;;20.4;26.9
68873;BME280;55907;50.806;12.882;2023-05-09T13:34:35;972.6;;;20.5;26.5
68873;BME280;55907;50.806;12.882;2023-05-09T13:37:37;972.7;;;20.6;27.2
68873;BME280;55907;50.806;12.882;2023-05-09T13:40:38;972.5;;;20.7;27.4
68873;BME280;55907;50.806;12.882;2023-05-09T13:46:41;972.5;;;20.8;27.5
68873;BME280;55907;50.806;12.882;2023-05-09T13:49:42;972.4;;;20.7;25.5
68873;BME280;55907;50.806;12.882;2023-05-09T13:52:44;972.4;;;20.6;26.9
68873;BME280;55907;50.806;12.882;2023-05-09T13:55:45;972.2;;;20.5;26.2
68873;BME280;55907;50.806;12.882;2023-05-09T13:58:46;972.3;;;20.2;26.2
68873;BME280;55907;50.806;12.882;2023-05-09T14:01:48;972.3;;;20.0;27.4
68873;BME280;55907;50.806;12.882;2023-05-09T14:04:49;972.2;;;20.1;27.9
68873;BME280;55907;50.806;12.882;2023-05-09T14:07:51;972.2;;;20.5;28.3
68873;BME280;55907;50.806;12.882;2023-05-09T14:10:52;972.2;;;20.5;27.2
68873;BME280;55907;50.806;12.882;2023-05-09T14:13:53;972.1;;;20.3;27.7
68873;BME280;55907;50.806;12.882;2023-05-09T14:16:55;972.1;;;20.4;27.4
68873;BME280;55907;50.806;12.882;2023-05-09T14:19:56;972.2;;;20.4;26.6
68873;BME280;55907;50.806;12.882;2023-05-09T14:22:58;972.0;;;20.0;28.1
68873;BME280;55907;50.806;12.882;2023-05-09T14:25:59;972.0;;;19.7;28.1
68873;BME280;55907;50.806;12.882;2023-05-09T14:29:02;971.9;;;19.8;28.2
68873;BME280;55907;50.806;12.882;2023-05-09T14:32:02;971.9;;;20.2;28.5
68873;BME280;55907;50.806;12.882;2023-05-09T14:35:04;971.8;;;20.4;27.9
68873;BME280;55907;50.806;12.882;2023-05-09T14:38:05;971.9;;;20.4;29.2
68873;BME280;55907;50.806;12.882;2023-05-09T14:41:06;971.9;;;20.3;28.7
68873;BME280;55907;50.806;12.882;2023-05-09T14:44:08;971.7;;;20.3;28.5
68873;BME280;55907;50.806;12.882;2023-05-09T14:47:09;971.8;;;20.1;28.0
68873;BME280;55907;50.806;12.882;2023-05-09T14:50:11;971.7;;;20.1;28.4
68873;BME280;55907;50.806;12.882;2023-05-09T14:53:12;971.7;;;20.1;29.0
68873;BME280;55907;50.806;12.882;2023-05-09T14:56:13;971.7;;;20.3;29.7
68873;BME280;55907;50.806;12.882;2023-05-09T14:59:15;971.8;;;20.4;29.7
68873;BME280;55907;50.806;12.882;2023-05-09T15:02:16;971.7;;;20.2;29.3
68873;BME280;55907;50.806;12.882;2023-05-09T15:05:18;971.6;;;20.2;30.0
68873;BME280;55907;50.806;12.882;2023-05-09T15:08:19;971.6;;;20.2;29.8
68873;BME280;55907;50.806;12.882;2023-05-09T15:11:21;971.6;;;20.1;29.4
68873;BME280;55907;50.806;12.882;2023-05-09T15:14:22;971.5;;;20.0;29.6
68873;BME280;55907;50.806;12.882;2023-05-09T15:17:23;971.5;;;19.9;29.9
68873;BME280;55907;50.806;12.882;2023-05-09T15:20:25;971.5;;;19.9;30.3
68873;BME280;55907;50.806;12.882;2023-05-09T15:23:26;971.5;;;19.9;30.8
68873;BME280;55907;50.806;12.882;2023-05-09T15:26:28;971.4;;;19.6;30.7
68873;BME280;55907;50.806;12.882;2023-05-09T15:29:29;971.5;;;19.4;31.7
68873;BME280;55907;50.806;12.882;2023-05-09T15:32:30;971.4;;;19.5;31.7
68873;BME280;55907;50.806;12.882;2023-05-09T15:35:32;971.4;;;19.5;31.5
68873;BME280;55907;50.806;12.882;2023-05-09T15:38:33;971.5;;;19.4;32.0
68873;BME280;55907;50.806;12.882;2023-05-09T15:41:35;971.6;;;19.4;32.2
68873;BME280;55907;50.806;12.882;2023-05-09T15:44:36;971.4;;;19.2;31.8
68873;BME280;55907;50.806;12.882;2023-05-09T15:47:38;971.4;;;19.2;32.3
68873;BME280;55907;50.806;12.882;2023-05-09T15:50:40;971.4;;;19.2;32.4
68873;BME280;55907;50.806;12.882;2023-05-09T15:53:40;971.3;;;19.2;33.1
68873;BME280;55907;50.806;12.882;2023-05-09T15:56:42;971.4;;;19.2;32.3
68873;BME280;55907;50.806;12.882;2023-05-09T15:59:43;971.3;;;18.9;32.7
68873;BME280;55907;50.806;12.882;2023-05-09T16:02:45;971.4;;;19.0;32.6
68873;BME280;55907;50.806;12.882;2023-05-09T16:05:46;971.2;;;18.9;32.8
68873;BME280;55907;50.806;12.882;2023-05-09T16:08:47;971.2;;;18.9;33.0
68873;BME280;55907;50.806;12.882;2023-05-09T16:11:49;971.2;;;18.8;33.2
68873;BME280;55907;50.806;12.882;2023-05-09T16:14:50;971.2;;;18.8;33.5
68873;BME280;55907;50.806;12.882;2023-05-09T16:17:52;971.1;;;18.7;32.9
68873;BME280;55907;50.806;12.882;2023-05-09T16:20:53;971.2;;;19.0;33.6
68873;BME280;55907;50.806;12.882;2023-05-09T16:26:56;971.0;;;18.9;33.5
68873;BME280;55907;50.806;12.882;2023-05-09T16:29:57;971.0;;;18.9;34.3
68873;BME280;55907;50.806;12.882;2023-05-09T16:32:59;971.0;;;19.0;34.3
68873;BME280;55907;50.806;12.882;2023-05-09T16:36:00;971.0;;;19.0;34.1
68873;BME280;55907;50.806;12.882;2023-05-09T16:39:02;970.9;;;19.0;34.2
68873;BME280;55907;50.806;12.882;2023-05-09T16:42:03;970.9;;;19.0;34.5
68873;BME280;55907;50.806;12.882;2023-05-09T16:45:06;970.9;;;18.9;35.0
68873;BME280;55907;50.806;12.882;2023-05-09T16:48:06;970.8;;;18.6;34.9
68873;BME280;55907;50.806;12.882;2023-05-09T16:51:07;970.8;;;18.5;35.1
68873;BME280;55907;50.806;12.882;2023-05-09T16:54:09;970.8;;;18.5;35.2
68873;BME280;55907;50.806;12.882;2023-05-09T16:57:10;970.6;;;18.5;35.6
68873;BME280;55907;50.806;12.882;2023-05-09T17:00:12;970.6;;;18.5;35.9
68873;BME280;55907;50.806;12.882;2023-05-09T17:03:13;970.6;;;18.5;36.1
68873;BME280;55907;50.806;12.882;2023-05-09T17:06:15;970.6;;;18.4;36.4
68873;BME280;55907;50.806;12.882;2023-05-09T17:09:16;970.5;;;18.4;36.4
68873;BME280;55907;50.806;12.882;2023-05-09T17:12:17;970.6;;;18.4;36.7
68873;BME280;55907;50.806;12.882;2023-05-09T17:15:19;970.5;;;18.3;36.7
68873;BME280;55907;50.806;12.882;2023-05-09T17:18:20;970.3;;;18.2;36.8
68873;BME280;55907;50.806;12.882;2023-05-09T17:21:22;970.3;;;18.1;37.3
68873;BME280;55907;50.806;12.882;2023-05-09T17:24:23;970.2;;;18.0;37.7